sensor_id;sensor_type;location;lat;lon;timestamp;pressure;altitude;pressure_sealevel;temperature;humidity
51526;BME280;37611;51.794;21.590;2023-07-13T00:00:50;99532.02;;;17.84;100.00
51526;BME280;37611;51.794;21.590;2023-07-13T00:05:12;99526.73;;;17.88;100.00
51526;BME280;37611;51.794;21.590;2023-07-13T00:09:15;99525.38;;;17.88;100.00
51526;BME280;37611;51.794;21.590;2023-07-13T00:13:17;99522.77;;;17.91;100.00
51526;BME280;37611;51.794;21.590;2023-07-13T00:17:19;99527.12;;;17.93;100.00
51526;BME280;37611;51.794;21.590;2023-07-13T00:21:21;99524.20;;;17.90;100.00
51526;BME280;37611;51.794;21.590;2023-07-13T00:25:23;99521.15;;;17.83;100.00
51526;BME280;37611;51.794;21.590;2023-07-13T00:29:31;99509.64;;;17.75;100.00
51526;BME280;37611;51.794;21.590;2023-07-13T00:33:35;99511.00;;;17.73;100.00
51526;BME280;37611;51.794;21.590;2023-07-13T00:37:37;99510.80;;;17.71;100.00
51526;BME280;37611;51.794;21.590;2023-07-13T00:41:39;99511.66;;;17.73;100.00
51526;BME280;37611;51.794;21.590;2023-07-13T00:49:46;99508.25;;;17.71;100.00
51526;BME280;37611;51.794;21.590;2023-07-13T00:53:48;99506.58;;;17.71;100.00
51526;BME280;37611;51.794;21.590;2023-07-13T00:57:50;99510.31;;;17.71;100.00
51526;BME280;37611;51.794;21.590;2023-07-13T01:01:52;99511.63;;;17.68;100.00
51526;BME280;37611;51.794;21.590;2023-07-13T01:05:54;99511.91;;;17.67;100.00
51526;BME280;37611;51.794;21.590;2023-07-13T01:09:56;99503.14;;;17.72;100.00
51526;BME280;37611;51.794;21.590;2023-07-13T01:13:57;99508.18;;;17.77;100.00
51526;BME280;37611;51.794;21.590;2023-07-13T01:18:00;99511.78;;;17.79;100.00
51526;BME280;37611;51.794;21.590;2023-07-13T01:22:14;99508.77;;;17.81;100.00
51526;BME280;37611;51.794;21.590;2023-07-13T01:26:16;99508.10;;;17.75;100.00
51526;BME280;37611;51.794;21.590;2023-07-13T01:30:18;99503.76;;;17.73;100.00
51526;BME280;37611;51.794;21.590;2023-07-13T01:34:20;99506.95;;;17.77;100.00
51526;BME280;37611;51.794;21.590;2023-07-13T01:38:22;99507.98;;;17.76;100.00
51526;BME280;37611;51.794;21.590;2023-07-13T01:42:24;99508.30;;;17.80;100.00
51526;BME280;37611;51.794;21.590;2023-07-13T01:46:26;99514.92;;;17.77;100.00
51526;BME280;37611;51.794;21.590;2023-07-13T01:50:28;99518.58;;;17.67;100.00
51526;BME280;37611;51.794;21.590;2023-07-13T01:54:30;99528.88;;;17.60;100.00
51526;BME280;37611;51.794;21.590;2023-07-13T01:58:31;99530.73;;;17.61;100.00
51526;BME280;37611;51.794;21.590;2023-07-13T02:02:33;99533.05;;;17.63;100.00
51526;BME280;37611;51.794;21.590;2023-07-13T02:06:35;99531.71;;;17.60;100.00
51526;BME280;37611;51.794;21.590;2023-07-13T02:10:37;99529.87;;;17.61;100.00
51526;BME280;37611;51.794;21.590;2023-07-13T02:14:39;99532.39;;;17.63;100.00
51526;BME280;37611;51.794;21.590;2023-07-13T02:18:40;99537.59;;;17.61;100.00
51526;BME280;37611;51.794;21.590;2023-07-13T02:22:42;99543.02;;;17.62;100.00
51526;BME280;37611;51.794;21.590;2023-07-13T02:26:44;99545.34;;;17.61;100.00
51526;BME280;37611;51.794;21.590;2023-07-13T02:30:46;99554.09;;;17.52;100.00
51526;BME280;37611;51.794;21.590;2023-07-13T02:34:48;99553.27;;;17.46;100.00
51526;BME280;37611;51.794;21.590;2023-07-13T02:38:50;99551.86;;;17.41;100.00
51526;BME280;37611;51.794;21.590;2023-07-13T02:42:52;99551.94;;;17.41;100.00
51526;BME280;37611;51.794;21.590;2023-07-13T02:46:54;99548.96;;;17.39;100.00
51526;BME280;37611;51.794;21.590;2023-07-13T02:50:55;99545.41;;;17.43;100.00
51526;BME280;37611;51.794;21.590;2023-07-13T02:54:57;99541.84;;;17.47;100.00
51526;BME280;37611;51.794;21.590;2023-07-13T02:58:59;99538.91;;;17.53;100.00
51526;BME280;37611;51.794;21.590;2023-07-13T03:03:01;99538.13;;;17.59;100.00
51526;BME280;37611;51.794;21.590;2023-07-13T03:07:04;99540.11;;;17.64;100.00
51526;BME280;37611;51.794;21.590;2023-07-13T03:11:08;99540.41;;;17.68;100.00
51526;BME280;37611;51.794;21.590;2023-07-13T03:15:12;99534.33;;;17.74;100.00
51526;BME280;37611;51.794;21.590;2023-07-13T03:19:14;99541.48;;;17.80;100.00
51526;BME280;37611;51.794;21.590;2023-07-13T03:23:15;99535.52;;;17.90;100.00
51526;BME280;37611;51.794;21.590;2023-07-13T03:27:18;99544.38;;;18.01;100.00
51526;BME280;37611;51.794;21.590;2023-07-13T03:31:25;99555.20;;;18.14;100.00
51526;BME280;37611;51.794;21.590;2023-07-13T03:35:27;99557.45;;;18.27;100.00
51526;BME280;37611;51.794;21.590;2023-07-13T03:39:29;99555.69;;;18.36;100.00
51526;BME280;37611;51.794;21.590;2023-07-13T03:43:31;99558.23;;;18.50;100.00
51526;BME280;37611;51.794;21.590;2023-07-13T03:47:32;99559.48;;;18.66;100.00
51526;BME280;37611;51.794;21.590;2023-07-13T03:51:34;99558.30;;;18.79;100.00
51526;BME280;37611;51.794;21.590;2023-07-13T03:55:36;99556.42;;;18.90;100.00
51526;BME280;37611;51.794;21.590;2023-07-13T03:59:38;99554.19;;;19.02;100.00
51526;BME280;37611;51.794;21.590;2023-07-13T04:03:40;99555.52;;;19.16;100.00
51526;BME280;37611;51.794;21.590;2023-07-13T04:07:42;99555.64;;;19.43;100.00
51526;BME280;37611;51.794;21.590;2023-07-13T04:11:44;99555.83;;;19.58;100.00
51526;BME280;37611;51.794;21.590;2023-07-13T04:15:46;99556.44;;;19.78;100.00
51526;BME280;37611;51.794;21.590;2023-07-13T04:19:47;99562.64;;;19.95;100.00
51526;BME280;37611;51.794;21.590;2023-07-13T04:23:50;99570.46;;;20.12;100.00
51526;BME280;37611;51.794;21.590;2023-07-13T04:27:53;99576.40;;;20.31;100.00
51526;BME280;37611;51.794;21.590;2023-07-13T04:31:54;99582.96;;;20.58;100.00
51526;BME280;37611;51.794;21.590;2023-07-13T04:35:57;99593.13;;;20.86;100.00
51526;BME280;37611;51.794;21.590;2023-07-13T04:39:59;99586.73;;;20.91;100.00
51526;BME280;37611;51.794;21.590;2023-07-13T04:44:00;99593.48;;;20.79;100.00
51526;BME280;37611;51.794;21.590;2023-07-13T04:48:05;99596.48;;;20.71;100.00
51526;BME280;37611;51.794;21.590;2023-07-13T04:52:07;99602.20;;;20.78;100.00
51526;BME280;37611;51.794;21.590;2023-07-13T04:56:09;99593.61;;;20.90;100.00
51526;BME280;37611;51.794;21.590;2023-07-13T05:00:12;99586.62;;;20.93;100.00
51526;BME280;37611;51.794;21.590;2023-07-13T05:04:15;99589.34;;;20.93;100.00
51526;BME280;37611;51.794;21.590;2023-07-13T05:08:16;99592.45;;;20.87;100.00
51526;BME280;37611;51.794;21.590;2023-07-13T05:12:18;99596.75;;;20.84;100.00
51526;BME280;37611;51.794;21.590;2023-07-13T05:16:20;99605.92;;;20.82;100.00
51526;BME280;37611;51.794;21.590;2023-07-13T05:20:21;99611.86;;;20.84;100.00
51526;BME280;37611;51.794;21.590;2023-07-13T05:24:23;99619.17;;;20.92;100.00
51526;BME280;37611;51.794;21.590;2023-07-13T05:28:26;99620.95;;;21.04;100.00
51526;BME280;37611;51.794;21.590;2023-07-13T05:32:28;99625.48;;;21.08;100.00
51526;BME280;37611;51.794;21.590;2023-07-13T05:36:30;99633.79;;;21.13;100.00
51526;BME280;37611;51.794;21.590;2023-07-13T05:40:32;99630.85;;;21.22;100.00
51526;BME280;37611;51.794;21.590;2023-07-13T05:44:34;99633.34;;;21.23;100.00
51526;BME280;37611;51.794;21.590;2023-07-13T05:48:35;99631.47;;;21.30;100.00
51526;BME280;37611;51.794;21.590;2023-07-13T05:52:37;99629.23;;;21.34;100.00
51526;BME280;37611;51.794;21.590;2023-07-13T05:56:39;99632.04;;;21.44;100.00
51526;BME280;37611;51.794;21.590;2023-07-13T06:00:41;99637.45;;;21.54;100.00
51526;BME280;37611;51.794;21.590;2023-07-13T06:04:43;99638.74;;;21.62;100.00
51526;BME280;37611;51.794;21.590;2023-07-13T06:08:45;99641.03;;;21.68;100.00
51526;BME280;37611;51.794;21.590;2023-07-13T06:12:46;99648.30;;;21.73;100.00
51526;BME280;37611;51.794;21.590;2023-07-13T06:16:48;99645.59;;;21.71;100.00
51526;BME280;37611;51.794;21.590;2023-07-13T06:20:50;99648.45;;;21.75;100.00
51526;BME280;37611;51.794;21.590;2023-07-13T06:24:52;99645.55;;;21.84;100.00
51526;BME280;37611;51.794;21.590;2023-07-13T06:28:54;99639.73;;;21.89;100.00
51526;BME280;37611;51.794;21.590;2023-07-13T06:32:55;99644.70;;;21.92;100.00
51526;BME280;37611;51.794;21.590;2023-07-13T06:36:57;99642.39;;;21.94;100.00
51526;BME280;37611;51.794;21.590;2023-07-13T06:40:59;99646.61;;;22.21;100.00
51526;BME280;37611;51.794;21.590;2023-07-13T06:45:02;99636.77;;;22.57;100.00
51526;BME280;37611;51.794;21.590;2023-07-13T06:49:03;99627.86;;;22.94;100.00
51526;BME280;37611;51.794;21.590;2023-07-13T06:53:05;99617.47;;;23.07;100.00
51526;BME280;37611;51.794;21.590;2023-07-13T06:57:07;99625.98;;;23.23;100.00
51526;BME280;37611;51.794;21.590;2023-07-13T07:01:09;99640.91;;;23.36;100.00
51526;BME280;37611;51.794;21.590;2023-07-13T07:05:11;99645.52;;;23.32;100.00
51526;BME280;37611;51.794;21.590;2023-07-13T07:09:13;99650.95;;;23.41;100.00
51526;BME280;37611;51.794;21.590;2023-07-13T07:13:15;99652.02;;;23.47;100.00
51526;BME280;37611;51.794;21.590;2023-07-13T07:17:17;99651.38;;;23.47;100.00
51526;BME280;37611;51.794;21.590;2023-07-13T07:21:19;99649.95;;;23.58;100.00
51526;BME280;37611;51.794;21.590;2023-07-13T07:25:20;99654.00;;;23.61;100.00
51526;BME280;37611;51.794;21.590;2023-07-13T07:29:22;99654.38;;;23.57;100.00
51526;BME280;37611;51.794;21.590;2023-07-13T07:33:26;99658.67;;;23.50;100.00
51526;BME280;37611;51.794;21.590;2023-07-13T07:37:28;99664.79;;;23.47;100.00
51526;BME280;37611;51.794;21.590;2023-07-13T07:41:30;99670.69;;;23.48;100.00
51526;BME280;37611;51.794;21.590;2023-07-13T07:45:32;99671.58;;;23.46;100.00
51526;BME280;37611;51.794;21.590;2023-07-13T07:49:35;99661.89;;;23.40;100.00
51526;BME280;37611;51.794;21.590;2023-07-13T07:53:37;99664.66;;;23.25;100.00
51526;BME280;37611;51.794;21.590;2023-07-13T07:57:39;99664.55;;;23.18;100.00
51526;BME280;37611;51.794;21.590;2023-07-13T08:01:41;99664.31;;;23.17;100.00
51526;BME280;37611;51.794;21.590;2023-07-13T08:05:43;99664.25;;;23.04;100.00
51526;BME280;37611;51.794;21.590;2023-07-13T08:09:44;99665.97;;;23.04;100.00
51526;BME280;37611;51.794;21.590;2023-07-13T08:13:50;99672.05;;;23.09;100.00
51526;BME280;37611;51.794;21.590;2023-07-13T08:17:52;99668.09;;;23.16;100.00
51526;BME280;37611;51.794;21.590;2023-07-13T08:21:53;99662.23;;;23.30;100.00
51526;BME280;37611;51.794;21.590;2023-07-13T08:25:55;99660.30;;;23.44;100.00
51526;BME280;37611;51.794;21.590;2023-07-13T08:29:58;99649.71;;;23.54;100.00
51526;BME280;37611;51.794;21.590;2023-07-13T08:34:00;99649.02;;;23.74;100.00
51526;BME280;37611;51.794;21.590;2023-07-13T08:38:01;99650.61;;;23.85;100.00
51526;BME280;37611;51.794;21.590;2023-07-13T08:46:30;99651.28;;;23.99;99.16
51526;BME280;37611;51.794;21.590;2023-07-13T08:50:42;99656.21;;;24.06;98.76
51526;BME280;37611;51.794;21.590;2023-07-13T08:54:50;99656.99;;;24.14;97.97
51526;BME280;37611;51.794;21.590;2023-07-13T08:59:00;99659.59;;;24.15;96.80
51526;BME280;37611;51.794;21.590;2023-07-13T09:03:03;99665.53;;;24.10;96.16
51526;BME280;37611;51.794;21.590;2023-07-13T09:07:18;99671.60;;;24.14;95.91
51526;BME280;37611;51.794;21.590;2023-07-13T09:15:44;99667.83;;;24.38;95.07
51526;BME280;37611;51.794;21.590;2023-07-13T09:19:53;99659.95;;;24.57;94.78
51526;BME280;37611;51.794;21.590;2023-07-13T09:24:01;99654.36;;;24.83;93.33
51526;BME280;37611;51.794;21.590;2023-07-13T09:28:11;99647.96;;;24.96;90.87
51526;BME280;37611;51.794;21.590;2023-07-13T09:32:21;99651.34;;;24.95;89.87
51526;BME280;37611;51.794;21.590;2023-07-13T09:36:27;99647.50;;;24.97;89.11
51526;BME280;37611;51.794;21.590;2023-07-13T09:40:44;99646.89;;;25.07;87.36
51526;BME280;37611;51.794;21.590;2023-07-13T09:45:00;99645.92;;;25.18;87.45
51526;BME280;37611;51.794;21.590;2023-07-13T09:49:03;99643.94;;;25.31;87.74
51526;BME280;37611;51.794;21.590;2023-07-13T09:53:12;99645.02;;;25.48;86.12
51526;BME280;37611;51.794;21.590;2023-07-13T09:57:17;99636.05;;;25.59;85.06
51526;BME280;37611;51.794;21.590;2023-07-13T10:01:34;99629.78;;;25.78;83.95
51526;BME280;37611;51.794;21.590;2023-07-13T10:05:39;99630.36;;;25.95;83.06
51526;BME280;37611;51.794;21.590;2023-07-13T10:09:41;99620.20;;;26.15;82.24
51526;BME280;37611;51.794;21.590;2023-07-13T10:13:57;99613.47;;;26.44;81.27
51526;BME280;37611;51.794;21.590;2023-07-13T10:18:01;99607.05;;;26.70;80.39
51526;BME280;37611;51.794;21.590;2023-07-13T10:26:18;99595.55;;;26.81;77.47
51526;BME280;37611;51.794;21.590;2023-07-13T10:30:42;99594.78;;;26.76;77.19
51526;BME280;37611;51.794;21.590;2023-07-13T10:34:47;99587.02;;;26.66;77.67
51526;BME280;37611;51.794;21.590;2023-07-13T10:38:52;99576.07;;;26.64;77.63
51526;BME280;37611;51.794;21.590;2023-07-13T10:42:58;99570.25;;;26.69;77.63
51526;BME280;37611;51.794;21.590;2023-07-13T10:47:07;99568.05;;;26.79;77.25
51526;BME280;37611;51.794;21.590;2023-07-13T10:51:10;99564.16;;;27.02;77.16
51526;BME280;37611;51.794;21.590;2023-07-13T10:59:33;99561.20;;;27.07;76.50
51526;BME280;37611;51.794;21.590;2023-07-13T11:03:49;99558.44;;;27.08;75.81
51526;BME280;37611;51.794;21.590;2023-07-13T11:07:55;99552.67;;;27.05;75.34
51526;BME280;37611;51.794;21.590;2023-07-13T11:12:05;99546.21;;;26.94;73.95
51526;BME280;37611;51.794;21.590;2023-07-13T11:20:31;99544.05;;;26.96;74.79
51526;BME280;37611;51.794;21.590;2023-07-13T11:24:57;99545.45;;;26.96;73.95
51526;BME280;37611;51.794;21.590;2023-07-13T11:29:08;99546.92;;;26.82;72.79
51526;BME280;37611;51.794;21.590;2023-07-13T11:34:12;99545.69;;;26.73;71.30
51526;BME280;37611;51.794;21.590;2023-07-13T11:37:41;99549.65;;;26.49;70.17
51526;BME280;37611;51.794;21.590;2023-07-13T11:41:45;99554.56;;;26.33;70.89
51526;BME280;37611;51.794;21.590;2023-07-13T11:45:51;99555.50;;;26.18;73.17
51526;BME280;37611;51.794;21.590;2023-07-13T11:49:55;99551.27;;;26.11;73.72
51526;BME280;37611;51.794;21.590;2023-07-13T11:54:03;99552.92;;;26.00;73.92
51526;BME280;37611;51.794;21.590;2023-07-13T11:58:09;99558.80;;;25.89;74.17
51526;BME280;37611;51.794;21.590;2023-07-13T12:02:28;99557.10;;;25.80;74.40
51526;BME280;37611;51.794;21.590;2023-07-13T12:06:33;99563.92;;;25.80;75.24
51526;BME280;37611;51.794;21.590;2023-07-13T12:10:38;99568.08;;;25.75;76.28
51526;BME280;37611;51.794;21.590;2023-07-13T12:14:40;99570.67;;;25.66;77.80
51526;BME280;37611;51.794;21.590;2023-07-13T12:18:43;99568.25;;;25.56;78.37
51526;BME280;37611;51.794;21.590;2023-07-13T12:22:50;99574.02;;;25.45;78.88
51526;BME280;37611;51.794;21.590;2023-07-13T12:27:00;99579.50;;;25.37;79.80
51526;BME280;37611;51.794;21.590;2023-07-13T12:31:18;99608.83;;;25.33;80.79
51526;BME280;37611;51.794;21.590;2023-07-13T12:35:24;99631.10;;;24.70;80.00
51526;BME280;37611;51.794;21.590;2023-07-13T12:39:44;99653.20;;;23.70;81.85
51526;BME280;37611;51.794;21.590;2023-07-13T12:43:47;99679.54;;;23.01;85.51
51526;BME280;37611;51.794;21.590;2023-07-13T12:47:57;99702.16;;;22.32;93.49
51526;BME280;37611;51.794;21.590;2023-07-13T12:52:04;99716.27;;;21.63;96.47
51526;BME280;37611;51.794;21.590;2023-07-13T12:56:19;99729.02;;;21.09;98.41
51526;BME280;37611;51.794;21.590;2023-07-13T13:00:36;99737.11;;;20.64;99.69
51526;BME280;37611;51.794;21.590;2023-07-13T13:04:40;99745.17;;;20.28;100.00
51526;BME280;37611;51.794;21.590;2023-07-13T13:08:48;99743.42;;;19.86;100.00
51526;BME280;37611;51.794;21.590;2023-07-13T13:12:51;99735.59;;;19.49;100.00
51526;BME280;37611;51.794;21.590;2023-07-13T13:16:53;99723.48;;;19.09;100.00
51526;BME280;37611;51.794;21.590;2023-07-13T13:20:56;99723.70;;;18.84;100.00
51526;BME280;37611;51.794;21.590;2023-07-13T13:24:58;99714.05;;;18.56;100.00
51526;BME280;37611;51.794;21.590;2023-07-13T13:29:00;99709.21;;;18.27;100.00
51526;BME280;37611;51.794;21.590;2023-07-13T13:33:02;99715.27;;;18.11;100.00
51526;BME280;37611;51.794;21.590;2023-07-13T13:37:09;99725.13;;;18.05;100.00
51526;BME280;37611;51.794;21.590;2023-07-13T13:41:17;99728.94;;;18.00;100.00
51526;BME280;37611;51.794;21.590;2023-07-13T13:45:19;99737.75;;;17.96;100.00
51526;BME280;37611;51.794;21.590;2023-07-13T13:49:24;99745.19;;;17.94;100.00
51526;BME280;37611;51.794;21.590;2023-07-13T13:53:27;99739.20;;;17.94;100.00
51526;BME280;37611;51.794;21.590;2023-07-13T13:57:29;99742.70;;;17.96;100.00
51526;BME280;37611;51.794;21.590;2023-07-13T14:01:32;99751.40;;;17.93;100.00
51526;BME280;37611;51.794;21.590;2023-07-13T14:05:35;99757.33;;;17.94;100.00
51526;BME280;37611;51.794;21.590;2023-07-13T14:09:36;99758.27;;;17.96;100.00
51526;BME280;37611;51.794;21.590;2023-07-13T14:13:43;99762.79;;;18.04;100.00
51526;BME280;37611;51.794;21.590;2023-07-13T14:17:45;99769.13;;;18.08;100.00
51526;BME280;37611;51.794;21.590;2023-07-13T14:21:51;99777.62;;;18.17;100.00
51526;BME280;37611;51.794;21.590;2023-07-13T14:25:55;99781.29;;;18.23;100.00
51526;BME280;37611;51.794;21.590;2023-07-13T14:29:56;99785.13;;;18.29;100.00
51526;BME280;37611;51.794;21.590;2023-07-13T14:33:58;99794.65;;;18.36;100.00
51526;BME280;37611;51.794;21.590;2023-07-13T14:38:00;99792.34;;;18.43;100.00
51526;BME280;37611;51.794;21.590;2023-07-13T14:42:02;99796.27;;;18.45;100.00
51526;BME280;37611;51.794;21.590;2023-07-13T14:46:05;99792.75;;;18.43;100.00
51526;BME280;37611;51.794;21.590;2023-07-13T14:50:24;99783.76;;;18.42;100.00
51526;BME280;37611;51.794;21.590;2023-07-13T14:54:28;99778.21;;;18.45;100.00
51526;BME280;37611;51.794;21.590;2023-07-13T14:58:30;99771.16;;;18.49;100.00
51526;BME280;37611;51.794;21.590;2023-07-13T15:02:34;99769.90;;;18.53;100.00
51526;BME280;37611;51.794;21.590;2023-07-13T15:06:59;99763.34;;;18.52;100.00
51526;BME280;37611;51.794;21.590;2023-07-13T15:11:01;99758.52;;;18.51;100.00
51526;BME280;37611;51.794;21.590;2023-07-13T15:15:06;99746.04;;;18.49;100.00
51526;BME280;37611;51.794;21.590;2023-07-13T15:19:10;99739.47;;;18.47;100.00
51526;BME280;37611;51.794;21.590;2023-07-13T15:23:17;99740.56;;;18.49;100.00
51526;BME280;37611;51.794;21.590;2023-07-13T15:27:19;99739.70;;;18.48;100.00
51526;BME280;37611;51.794;21.590;2023-07-13T15:31:23;99749.88;;;18.51;100.00
51526;BME280;37611;51.794;21.590;2023-07-13T15:35:26;99749.63;;;18.54;100.00
51526;BME280;37611;51.794;21.590;2023-07-13T15:39:29;99749.08;;;18.58;100.00
51526;BME280;37611;51.794;21.590;2023-07-13T15:43:33;99753.04;;;18.61;100.00
51526;BME280;37611;51.794;21.590;2023-07-13T15:47:35;99753.98;;;18.67;100.00
51526;BME280;37611;51.794;21.590;2023-07-13T15:51:37;99758.06;;;18.74;100.00
51526;BME280;37611;51.794;21.590;2023-07-13T15:55:40;99761.36;;;18.77;100.00
51526;BME280;37611;51.794;21.590;2023-07-13T15:59:42;99762.70;;;18.79;100.00
51526;BME280;37611;51.794;21.590;2023-07-13T16:03:45;99762.32;;;18.82;100.00
51526;BME280;37611;51.794;21.590;2023-07-13T16:07:49;99758.62;;;18.86;100.00
51526;BME280;37611;51.794;21.590;2023-07-13T16:11:52;99756.30;;;18.91;100.00
51526;BME280;37611;51.794;21.590;2023-07-13T16:15:56;99757.67;;;18.94;100.00
51526;BME280;37611;51.794;21.590;2023-07-13T16:19:58;99762.29;;;18.90;100.00
51526;BME280;37611;51.794;21.590;2023-07-13T16:24:03;99749.33;;;18.89;100.00
51526;BME280;37611;51.794;21.590;2023-07-13T16:28:08;99743.79;;;18.89;100.00
51526;BME280;37611;51.794;21.590;2023-07-13T16:32:12;99743.31;;;18.86;100.00
51526;BME280;37611;51.794;21.590;2023-07-13T16:36:14;99744.11;;;18.80;100.00
51526;BME280;37611;51.794;21.590;2023-07-13T16:40:28;99751.28;;;18.78;100.00
51526;BME280;37611;51.794;21.590;2023-07-13T16:44:31;99755.45;;;18.79;100.00
51526;BME280;37611;51.794;21.590;2023-07-13T16:48:34;99749.16;;;18.76;100.00
51526;BME280;37611;51.794;21.590;2023-07-13T16:52:35;99751.02;;;18.74;100.00
51526;BME280;37611;51.794;21.590;2023-07-13T16:56:38;99756.38;;;18.76;100.00
51526;BME280;37611;51.794;21.590;2023-07-13T17:00:41;99755.71;;;18.76;100.00
51526;BME280;37611;51.794;21.590;2023-07-13T17:04:44;99746.69;;;18.72;100.00
51526;BME280;37611;51.794;21.590;2023-07-13T17:08:47;99752.16;;;18.65;100.00
51526;BME280;37611;51.794;21.590;2023-07-13T17:12:51;99760.21;;;18.58;100.00
51526;BME280;37611;51.794;21.590;2023-07-13T17:16:55;99754.13;;;18.53;100.00
51526;BME280;37611;51.794;21.590;2023-07-13T17:20:58;99755.58;;;18.49;100.00
51526;BME280;37611;51.794;21.590;2023-07-13T17:25:11;99760.24;;;18.48;100.00
51526;BME280;37611;51.794;21.590;2023-07-13T17:29:15;99759.77;;;18.43;100.00
51526;BME280;37611;51.794;21.590;2023-07-13T17:33:34;99756.99;;;18.41;100.00
51526;BME280;37611;51.794;21.590;2023-07-13T17:37:37;99737.87;;;18.33;100.00
51526;BME280;37611;51.794;21.590;2023-07-13T17:41:39;99753.54;;;18.32;100.00
51526;BME280;37611;51.794;21.590;2023-07-13T17:45:44;99775.21;;;18.40;100.00
51526;BME280;37611;51.794;21.590;2023-07-13T17:49:48;99777.48;;;18.45;100.00
51526;BME280;37611;51.794;21.590;2023-07-13T17:53:51;99773.70;;;18.48;100.00
51526;BME280;37611;51.794;21.590;2023-07-13T17:57:55;99761.14;;;18.50;100.00
51526;BME280;37611;51.794;21.590;2023-07-13T18:01:57;99753.77;;;18.51;100.00
51526;BME280;37611;51.794;21.590;2023-07-13T18:06:02;99760.35;;;18.51;100.00
51526;BME280;37611;51.794;21.590;2023-07-13T18:10:12;99765.27;;;18.51;100.00
51526;BME280;37611;51.794;21.590;2023-07-13T18:14:14;99770.59;;;18.53;100.00
51526;BME280;37611;51.794;21.590;2023-07-13T18:18:16;99775.96;;;18.47;100.00
51526;BME280;37611;51.794;21.590;2023-07-13T18:22:19;99781.21;;;18.40;100.00
51526;BME280;37611;51.794;21.590;2023-07-13T18:26:23;99790.02;;;18.34;100.00
51526;BME280;37611;51.794;21.590;2023-07-13T18:30:26;99793.02;;;18.31;100.00
51526;BME280;37611;51.794;21.590;2023-07-13T18:34:28;99801.25;;;18.27;100.00
51526;BME280;37611;51.794;21.590;2023-07-13T18:38:30;99805.88;;;18.23;100.00
51526;BME280;37611;51.794;21.590;2023-07-13T18:42:33;99814.51;;;18.20;100.00
51526;BME280;37611;51.794;21.590;2023-07-13T18:46:36;99820.55;;;18.18;100.00
51526;BME280;37611;51.794;21.590;2023-07-13T18:50:38;99820.68;;;18.15;100.00
51526;BME280;37611;51.794;21.590;2023-07-13T18:54:43;99822.29;;;18.07;100.00
51526;BME280;37611;51.794;21.590;2023-07-13T18:58:45;99827.28;;;18.02;100.00
51526;BME280;37611;51.794;21.590;2023-07-13T19:02:46;99825.04;;;18.00;100.00
51526;BME280;37611;51.794;21.590;2023-07-13T19:06:48;99823.36;;;17.99;100.00
51526;BME280;37611;51.794;21.590;2023-07-13T19:10:52;99826.70;;;17.98;100.00
51526;BME280;37611;51.794;21.590;2023-07-13T19:14:54;99826.59;;;17.96;100.00
51526;BME280;37611;51.794;21.590;2023-07-13T19:18:56;99822.57;;;17.97;100.00
51526;BME280;37611;51.794;21.590;2023-07-13T19:23:02;99820.86;;;17.99;100.00
51526;BME280;37611;51.794;21.590;2023-07-13T19:27:10;99820.98;;;18.00;100.00
51526;BME280;37611;51.794;21.590;2023-07-13T19:31:30;99823.28;;;18.02;100.00
51526;BME280;37611;51.794;21.590;2023-07-13T19:35:36;99817.31;;;17.98;100.00
51526;BME280;37611;51.794;21.590;2023-07-13T19:39:38;99819.75;;;18.01;100.00
51526;BME280;37611;51.794;21.590;2023-07-13T19:43:42;99822.73;;;18.04;100.00
51526;BME280;37611;51.794;21.590;2023-07-13T19:47:45;99834.15;;;17.98;100.00
51526;BME280;37611;51.794;21.590;2023-07-13T19:51:47;99837.05;;;17.96;100.00
51526;BME280;37611;51.794;21.590;2023-07-13T19:55:49;99827.98;;;18.00;100.00
51526;BME280;37611;51.794;21.590;2023-07-13T19:59:52;99838.93;;;17.99;100.00
51526;BME280;37611;51.794;21.590;2023-07-13T20:03:55;99840.04;;;17.96;100.00
51526;BME280;37611;51.794;21.590;2023-07-13T20:07:58;99839.06;;;17.96;100.00
51526;BME280;37611;51.794;21.590;2023-07-13T20:12:01;99845.77;;;17.97;100.00
51526;BME280;37611;51.794;21.590;2023-07-13T20:16:03;99855.04;;;17.98;100.00
51526;BME280;37611;51.794;21.590;2023-07-13T20:20:19;99862.41;;;17.96;100.00
51526;BME280;37611;51.794;21.590;2023-07-13T20:24:23;99856.68;;;17.93;100.00
51526;BME280;37611;51.794;21.590;2023-07-13T20:28:25;99859.45;;;17.90;100.00
51526;BME280;37611;51.794;21.590;2023-07-13T20:32:27;99869.80;;;17.87;100.00
51526;BME280;37611;51.794;21.590;2023-07-13T20:36:29;99867.99;;;17.81;100.00
51526;BME280;37611;51.794;21.590;2023-07-13T20:40:33;99869.58;;;17.72;100.00
51526;BME280;37611;51.794;21.590;2023-07-13T20:44:35;99873.25;;;17.69;100.00
51526;BME280;37611;51.794;21.590;2023-07-13T20:48:39;99868.98;;;17.66;100.00
51526;BME280;37611;51.794;21.590;2023-07-13T20:52:48;99874.54;;;17.65;100.00
51526;BME280;37611;51.794;21.590;2023-07-13T20:56:50;99868.49;;;17.67;100.00
51526;BME280;37611;51.794;21.590;2023-07-13T21:00:52;99875.69;;;17.70;100.00
51526;BME280;37611;51.794;21.590;2023-07-13T21:04:56;99885.34;;;17.70;100.00
51526;BME280;37611;51.794;21.590;2023-07-13T21:08:59;99880.09;;;17.72;100.00
51526;BME280;37611;51.794;21.590;2023-07-13T21:13:01;99880.73;;;17.71;100.00
51526;BME280;37611;51.794;21.590;2023-07-13T21:17:03;99886.33;;;17.70;100.00
51526;BME280;37611;51.794;21.590;2023-07-13T21:21:09;99881.39;;;17.67;100.00
51526;BME280;37611;51.794;21.590;2023-07-13T21:25:14;99879.69;;;17.67;100.00
51526;BME280;37611;51.794;21.590;2023-07-13T21:29:17;99879.40;;;17.67;100.00